Time;durP1;ratioP1;P1;durP2;ratioP2;P2;SDS_P1;SDS_P2;PMS_P1;PMS_P2;Temp;Humidity;BMP_temperature;BMP_pressure;BME280_temperature;BME280_humidity;BME280_pressure;Samples;Min_cycle;Max_cycle;Signal;HPM_P1;HPM_P2
2022/01/09 00:01:32;;;;;;;30.80;16.50;;;;;;;;;;5072662;28;20016;-67
2022/01/09 00:04:01;;;;;;;37.28;17.83;;;;;;;;;;5072769;28;20056;-67
2022/01/09 00:06:27;;;;;;;34.33;17.45;;;;;;;;;;5072328;28;20486;-68
2022/01/09 00:08:54;;;;;;;31.20;17.08;;;;;;;;;;5072820;28;20124;-68
2022/01/09 00:11:26;;;;;;;34.33;17.52;;;;;;;;;;5072752;28;20021;-67
2022/01/09 00:13:53;;;;;;;35.65;19.27;;;;;;;;;;5076272;28;20078;-67
2022/01/09 00:16:20;;;;;;;41.20;17.95;;;;;;;;;;5076144;28;20031;-67
2022/01/09 00:18:47;;;;;;;37.53;18.95;;;;;;;;;;5076070;28;20013;-68
2022/01/09 00:21:13;;;;;;;37.83;19.25;;;;;;;;;;5076075;28;20025;-69
2022/01/09 00:23:39;;;;;;;43.58;21.45;;;;;;;;;;5076269;28;20033;-67
2022/01/09 00:26:07;;;;;;;37.28;19.13;;;;;;;;;;5075913;28;20059;-66
2022/01/09 00:28:34;;;;;;;37.05;17.35;;;;;;;;;;5076201;28;20035;-66
2022/01/09 00:31:00;;;;;;;36.45;17.30;;;;;;;;;;5076332;28;20024;-67
2022/01/09 00:33:26;;;;;;;33.47;18.23;;;;;;;;;;5075685;28;20064;-67
2022/01/09 00:35:53;;;;;;;37.80;18.08;;;;;;;;;;5076003;28;20051;-66
2022/01/09 00:38:19;;;;;;;30.27;16.08;;;;;;;;;;5075672;28;20012;-66
2022/01/09 00:40:45;;;;;;;42.10;18.52;;;;;;;;;;5075661;28;20016;-65
2022/01/09 00:43:11;;;;;;;33.70;17.75;;;;;;;;;;5075515;28;20036;-67
2022/01/09 00:45:38;;;;;;;29.10;16.92;;;;;;;;;;5075791;28;20107;-68
2022/01/09 00:48:05;;;;;;;38.63;18.45;;;;;;;;;;5075012;28;20372;-66
2022/01/09 00:50:31;;;;;;;34.75;17.88;;;;;;;;;;5075712;28;20044;-67
2022/01/09 00:52:57;;;;;;;33.20;17.00;;;;;;;;;;5075946;28;20127;-66
2022/01/09 00:55:23;;;;;;;32.88;17.35;;;;;;;;;;5075063;28;20024;-68
2022/01/09 00:57:49;;;;;;;33.05;17.17;;;;;;;;;;5074181;28;20024;-65
2022/01/09 01:00:16;;;;;;;33.42;17.33;;;;;;;;;;5075817;28;20021;-67
2022/01/09 01:02:42;;;;;;;31.40;16.90;;;;;;;;;;5074817;28;20032;-68
2022/01/09 01:05:13;;;;;;;34.17;17.35;;;;;;;;;;5075161;28;20028;-67
2022/01/09 01:07:40;;;;;;;33.58;17.52;;;;;;;;;;5075238;28;20047;-66
2022/01/09 01:10:07;;;;;;;34.03;17.40;;;;;;;;;;5075432;28;20028;-68
2022/01/09 01:12:33;;;;;;;36.80;18.85;;;;;;;;;;5075068;28;20031;-66
2022/01/09 01:14:59;;;;;;;35.72;18.70;;;;;;;;;;5073744;28;20020;-66
2022/01/09 01:17:25;;;;;;;38.78;18.70;;;;;;;;;;5075442;28;20112;-66
2022/01/09 01:19:53;;;;;;;38.28;17.98;;;;;;;;;;5075230;28;20107;-66
2022/01/09 01:22:20;;;;;;;37.10;19.15;;;;;;;;;;5074463;28;20064;-67
2022/01/09 01:24:46;;;;;;;36.58;17.77;;;;;;;;;;5074052;28;20017;-66
2022/01/09 01:27:13;;;;;;;58.08;25.30;;;;;;;;;;5074971;28;20021;-66
2022/01/09 01:29:40;;;;;;;35.53;18.40;;;;;;;;;;5074609;28;20028;-67
2022/01/09 01:32:06;;;;;;;38.35;18.27;;;;;;;;;;5074575;28;20078;-67
2022/01/09 01:34:33;;;;;;;37.63;17.00;;;;;;;;;;5074834;28;20070;-67
2022/01/09 01:36:59;;;;;;;32.97;17.60;;;;;;;;;;5074474;28;20107;-68
2022/01/09 01:39:26;;;;;;;37.20;17.58;;;;;;;;;;5074255;28;20017;-66
2022/01/09 01:41:52;;;;;;;37.53;17.48;;;;;;;;;;5074546;28;20035;-67
2022/01/09 01:44:20;;;;;;;32.88;17.92;;;;;;;;;;5074026;28;20052;-66
2022/01/09 01:46:46;;;;;;;38.20;18.55;;;;;;;;;;5074706;28;20077;-68
2022/01/09 01:49:13;;;;;;;31.35;16.95;;;;;;;;;;5074281;28;20411;-69
2022/01/09 01:51:42;;;;;;;35.65;17.98;;;;;;;;;;5074097;28;20048;-66
2022/01/09 01:54:09;;;;;;;33.42;16.90;;;;;;;;;;5074098;28;20043;-66
2022/01/09 01:56:35;;;;;;;35.03;18.27;;;;;;;;;;5074089;28;20024;-67
2022/01/09 01:59:02;;;;;;;35.80;17.70;;;;;;;;;;5074360;28;20028;-66
2022/01/09 02:01:28;;;;;;;33.90;18.15;;;;;;;;;;5074418;28;20027;-66
2022/01/09 02:03:54;;;;;;;39.20;19.80;;;;;;;;;;5073908;28;20034;-65
2022/01/09 02:06:20;;;;;;;36.50;18.83;;;;;;;;;;5074270;28;20021;-64
2022/01/09 02:08:47;;;;;;;34.88;17.95;;;;;;;;;;5074305;28;20402;-66
2022/01/09 02:11:13;;;;;;;33.40;17.10;;;;;;;;;;5073667;28;20476;-66
2022/01/09 02:13:41;;;;;;;37.08;17.38;;;;;;;;;;5073901;28;20028;-65
2022/01/09 02:16:16;;;;;;;33.85;17.17;;;;;;;;;;5073800;28;20137;-65
2022/01/09 02:18:43;;;;;;;30.98;15.93;;;;;;;;;;5073796;28;20418;-66
2022/01/09 02:21:10;;;;;;;33.45;17.88;;;;;;;;;;5074361;28;20016;-67
2022/01/09 02:23:39;;;;;;;35.45;17.27;;;;;;;;;;5073996;28;20029;-66
2022/01/09 02:26:05;;;;;;;37.90;18.20;;;;;;;;;;5073713;28;20077;-67
2022/01/09 02:28:31;;;;;;;35.38;17.20;;;;;;;;;;5073922;28;20016;-66
2022/01/09 02:30:57;;;;;;;35.10;18.10;;;;;;;;;;5073941;28;20025;-68
2022/01/09 02:33:24;;;;;;;34.33;18.10;;;;;;;;;;5073484;28;20035;-67
2022/01/09 02:35:53;;;;;;;35.47;18.15;;;;;;;;;;5072953;28;20422;-66
2022/01/09 02:38:20;;;;;;;35.45;18.45;;;;;;;;;;5073504;28;20479;-65
2022/01/09 02:40:53;;;;;;;40.50;17.02;;;;;;;;;;5073471;28;20024;-66
2022/01/09 02:43:20;;;;;;;30.67;15.98;;;;;;;;;;5073488;28;20557;-66
2022/01/09 02:45:52;;;;;;;36.75;18.17;;;;;;;;;;5073654;28;20038;-65
2022/01/09 02:48:18;;;;;;;33.15;16.60;;;;;;;;;;5073822;28;20025;-67
2022/01/09 02:50:58;;;;;;;35.92;17.73;;;;;;;;;;5073720;28;20025;-64
2022/01/09 02:53:26;;;;;;;30.35;15.98;;;;;;;;;;5072987;28;20080;-67
2022/01/09 02:55:52;;;;;;;32.47;15.82;;;;;;;;;;5073706;28;20028;-68
2022/01/09 02:58:18;;;;;;;33.42;16.23;;;;;;;;;;5073279;28;20028;-65
2022/01/09 03:00:45;;;;;;;35.08;17.45;;;;;;;;;;5073251;28;20127;-66
2022/01/09 03:03:12;;;;;;;30.60;15.90;;;;;;;;;;5073440;28;20032;-66
2022/01/09 03:05:38;;;;;;;34.33;18.30;;;;;;;;;;5073667;28;20063;-66
2022/01/09 03:08:04;;;;;;;33.30;17.00;;;;;;;;;;5072870;28;20025;-67
2022/01/09 03:10:30;;;;;;;27.70;14.30;;;;;;;;;;5073071;28;20099;-67
2022/01/09 03:12:57;;;;;;;26.35;14.57;;;;;;;;;;5073108;28;20103;-65
2022/01/09 03:15:24;;;;;;;32.55;14.70;;;;;;;;;;5073044;28;20108;-66
2022/01/09 03:17:50;;;;;;;30.20;14.60;;;;;;;;;;5072144;28;20108;-65
2022/01/09 03:20:21;;;;;;;26.98;13.30;;;;;;;;;;5073410;28;20023;-65
2022/01/09 03:22:48;;;;;;;26.40;13.55;;;;;;;;;;5073082;28;20115;-68
2022/01/09 03:25:14;;;;;;;26.70;13.45;;;;;;;;;;5072049;28;20029;-66
2022/01/09 03:27:41;;;;;;;29.13;14.10;;;;;;;;;;5072733;28;20020;-66
2022/01/09 03:30:08;;;;;;;27.48;13.30;;;;;;;;;;5073236;28;20446;-67
2022/01/09 03:32:38;;;;;;;26.15;14.35;;;;;;;;;;5072932;28;20082;-67
2022/01/09 03:35:06;;;;;;;25.67;13.25;;;;;;;;;;5073355;28;20021;-65
2022/01/09 03:37:32;;;;;;;31.25;13.65;;;;;;;;;;5072907;28;20020;-66
2022/01/09 03:39:58;;;;;;;27.67;12.73;;;;;;;;;;5072872;28;20031;-67
2022/01/09 03:42:24;;;;;;;28.15;13.05;;;;;;;;;;5072505;28;20482;-65
2022/01/09 03:44:51;;;;;;;27.85;13.98;;;;;;;;;;5073142;28;20035;-67
2022/01/09 03:47:17;;;;;;;27.98;14.43;;;;;;;;;;5074795;28;20036;-67
2022/01/09 03:49:43;;;;;;;30.73;13.85;;;;;;;;;;5076412;28;20382;-66
2022/01/09 03:52:09;;;;;;;24.73;12.85;;;;;;;;;;5076570;28;20429;-67
2022/01/09 03:54:37;;;;;;;23.50;12.73;;;;;;;;;;5076629;28;20024;-66
2022/01/09 03:57:04;;;;;;;28.58;13.57;;;;;;;;;;5076352;28;20027;-66
2022/01/09 03:59:30;;;;;;;25.65;12.20;;;;;;;;;;5077075;28;20028;-67
2022/01/09 04:01:56;;;;;;;24.20;11.82;;;;;;;;;;5076993;28;20021;-67
2022/01/09 04:04:22;;;;;;;24.58;12.48;;;;;;;;;;5075112;28;20490;-68
2022/01/09 04:06:50;;;;;;;22.35;12.32;;;;;;;;;;5076590;28;20035;-67
2022/01/09 04:12:03;;;;;;;23.45;12.77;;;;;;;;;;5076363;28;20082;-66
2022/01/09 04:14:30;;;;;;;27.98;12.85;;;;;;;;;;5076339;28;20081;-66
2022/01/09 04:16:57;;;;;;;23.80;11.00;;;;;;;;;;5075933;28;20441;-65
2022/01/09 04:19:23;;;;;;;26.95;12.32;;;;;;;;;;5076182;28;20040;-66
2022/01/09 04:21:49;;;;;;;25.75;11.68;;;;;;;;;;5076117;28;20070;-66
2022/01/09 04:24:15;;;;;;;23.17;11.13;;;;;;;;;;5074643;28;20081;-65
2022/01/09 04:26:42;;;;;;;25.58;13.82;;;;;;;;;;5075996;28;20475;-68
2022/01/09 04:29:08;;;;;;;25.65;12.75;;;;;;;;;;5075704;28;20024;-66
2022/01/09 04:31:34;;;;;;;27.27;13.40;;;;;;;;;;5076083;28;20028;-67
2022/01/09 04:34:00;;;;;;;30.20;13.98;;;;;;;;;;5076153;28;20025;-66
2022/01/09 04:36:26;;;;;;;29.08;14.55;;;;;;;;;;5075887;28;20528;-66
2022/01/09 04:38:54;;;;;;;30.38;14.80;;;;;;;;;;5075976;28;20056;-68
2022/01/09 04:41:20;;;;;;;28.35;14.05;;;;;;;;;;5076012;28;20020;-66
2022/01/09 04:43:48;;;;;;;22.83;12.40;;;;;;;;;;5075706;28;20035;-67
2022/01/09 04:46:21;;;;;;;24.65;13.35;;;;;;;;;;5075458;28;20081;-67
2022/01/09 04:48:48;;;;;;;25.17;12.93;;;;;;;;;;5076479;28;20024;-66
2022/01/09 04:51:15;;;;;;;27.05;12.73;;;;;;;;;;5075559;28;20024;-66
2022/01/09 04:53:41;;;;;;;28.33;13.43;;;;;;;;;;5075429;28;20382;-67
2022/01/09 04:56:07;;;;;;;24.80;12.70;;;;;;;;;;5075513;28;20025;-67
2022/01/09 04:58:35;;;;;;;26.38;12.85;;;;;;;;;;5074400;28;20039;-67
2022/01/09 05:01:03;;;;;;;25.90;12.52;;;;;;;;;;5074944;28;20017;-66
2022/01/09 05:03:30;;;;;;;25.00;12.88;;;;;;;;;;5074193;28;20040;-67
2022/01/09 05:05:56;;;;;;;26.33;13.07;;;;;;;;;;5075286;28;20480;-65
2022/01/09 05:08:22;;;;;;;27.05;11.73;;;;;;;;;;5075236;28;20021;-67
2022/01/09 05:10:48;;;;;;;24.35;11.93;;;;;;;;;;5075428;28;20115;-66
2022/01/09 05:13:14;;;;;;;25.58;12.63;;;;;;;;;;5075170;28;20064;-65
2022/01/09 05:15:40;;;;;;;29.05;12.48;;;;;;;;;;5075326;28;20424;-66
2022/01/09 05:18:13;;;;;;;25.02;11.93;;;;;;;;;;5075046;28;20074;-67
2022/01/09 05:20:39;;;;;;;20.38;10.77;;;;;;;;;;5074830;28;20040;-66
2022/01/09 05:23:05;;;;;;;18.70;10.20;;;;;;;;;;5075156;28;20117;-67
2022/01/09 05:25:31;;;;;;;26.42;11.80;;;;;;;;;;5074883;28;20074;-67
2022/01/09 05:27:57;;;;;;;22.48;10.55;;;;;;;;;;5074635;28;20066;-68
2022/01/09 05:30:23;;;;;;;19.80;10.45;;;;;;;;;;5075059;28;20021;-67
2022/01/09 05:32:49;;;;;;;25.35;12.60;;;;;;;;;;5075317;28;20037;-66
2022/01/09 05:35:16;;;;;;;23.48;12.80;;;;;;;;;;5074796;28;20066;-67
2022/01/09 05:37:42;;;;;;;26.20;12.40;;;;;;;;;;5075427;28;20487;-67
2022/01/09 05:40:08;;;;;;;27.25;13.73;;;;;;;;;;5074879;28;20035;-68
2022/01/09 05:42:34;;;;;;;29.35;14.75;;;;;;;;;;5074227;28;20392;-67
2022/01/09 05:45:02;;;;;;;33.88;18.13;;;;;;;;;;5074816;28;20477;-67
2022/01/09 05:47:29;;;;;;;36.70;18.13;;;;;;;;;;5074361;28;20070;-67
2022/01/09 05:49:55;;;;;;;26.48;13.07;;;;;;;;;;5074339;28;20027;-68
2022/01/09 05:52:21;;;;;;;23.13;11.85;;;;;;;;;;5074465;28;20048;-66
2022/01/09 05:54:48;;;;;;;24.35;11.48;;;;;;;;;;5074225;28;20029;-67
2022/01/09 05:57:14;;;;;;;22.75;11.27;;;;;;;;;;5073990;28;20029;-67
2022/01/09 05:59:41;;;;;;;26.15;11.60;;;;;;;;;;5074043;28;20025;-66
2022/01/09 06:02:09;;;;;;;24.23;12.20;;;;;;;;;;5073854;28;20531;-70
2022/01/09 06:04:48;;;;;;;23.48;12.43;;;;;;;;;;5073815;28;20468;-69
2022/01/09 06:07:15;;;;;;;27.25;12.95;;;;;;;;;;5074250;28;20062;-66
2022/01/09 06:09:41;;;;;;;34.42;16.00;;;;;;;;;;5074031;28;20021;-66
2022/01/09 06:12:07;;;;;;;34.00;15.52;;;;;;;;;;5074061;28;20016;-67
2022/01/09 06:14:34;;;;;;;35.97;16.88;;;;;;;;;;5073983;28;20071;-64
2022/01/09 06:17:00;;;;;;;31.92;16.88;;;;;;;;;;5073500;28;20028;-67
2022/01/09 06:19:26;;;;;;;88.88;41.33;;;;;;;;;;5073946;28;20029;-66
2022/01/09 06:21:52;;;;;;;76.28;38.30;;;;;;;;;;5073632;28;20115;-66
2022/01/09 06:24:18;;;;;;;44.75;22.83;;;;;;;;;;5073242;28;20387;-65
2022/01/09 06:26:44;;;;;;;63.15;28.92;;;;;;;;;;5073832;28;20031;-68
2022/01/09 06:29:12;;;;;;;40.03;18.48;;;;;;;;;;5073613;28;20020;-66
2022/01/09 06:31:38;;;;;;;34.40;15.75;;;;;;;;;;5073194;28;20029;-66
2022/01/09 06:34:05;;;;;;;32.35;15.45;;;;;;;;;;5073840;28;20107;-66
2022/01/09 06:36:31;;;;;;;35.85;17.55;;;;;;;;;;5073082;28;20027;-67
2022/01/09 06:38:57;;;;;;;33.78;17.30;;;;;;;;;;5073418;28;20056;-66
2022/01/09 06:41:23;;;;;;;36.88;18.55;;;;;;;;;;5073734;28;20027;-66
2022/01/09 06:43:49;;;;;;;34.70;18.30;;;;;;;;;;5073354;28;20050;-67
2022/01/09 06:46:16;;;;;;;37.80;19.83;;;;;;;;;;5073709;28;20374;-66
2022/01/09 06:48:42;;;;;;;42.53;18.85;;;;;;;;;;5073610;28;20021;-67
2022/01/09 06:51:10;;;;;;;34.17;17.80;;;;;;;;;;5073100;28;20112;-67
2022/01/09 06:53:36;;;;;;;38.95;19.85;;;;;;;;;;5073659;28;20060;-67
2022/01/09 06:56:02;;;;;;;43.05;18.50;;;;;;;;;;5073260;28;20021;-67
2022/01/09 06:58:28;;;;;;;42.72;21.80;;;;;;;;;;5071525;28;20024;-67
2022/01/09 07:00:55;;;;;;;53.58;24.90;;;;;;;;;;5072168;28;20024;-67
2022/01/09 07:03:21;;;;;;;57.45;28.92;;;;;;;;;;5090392;28;20035;-66
2022/01/09 07:05:47;;;;;;;52.88;25.70;;;;;;;;;;5093021;28;20055;-66
2022/01/09 07:08:16;;;;;;;61.28;32.60;;;;;;;;;;5093611;28;20024;-67
2022/01/09 07:10:42;;;;;;;44.33;22.50;;;;;;;;;;5093648;28;20020;-67
2022/01/09 07:13:08;;;;;;;35.80;19.88;;;;;;;;;;5092787;28;20168;-66
2022/01/09 07:15:34;;;;;;;44.33;20.88;;;;;;;;;;5093397;28;20020;-66
2022/01/09 07:18:00;;;;;;;38.33;20.02;;;;;;;;;;5091680;28;20026;-66
2022/01/09 07:20:27;;;;;;;38.47;19.15;;;;;;;;;;5076028;28;20139;-67
2022/01/09 07:22:53;;;;;;;38.05;19.33;;;;;;;;;;5075731;28;20028;-66
2022/01/09 07:25:19;;;;;;;35.40;18.25;;;;;;;;;;5076338;28;20478;-66
2022/01/09 07:27:45;;;;;;;40.78;20.58;;;;;;;;;;5075695;28;20066;-66
2022/01/09 07:30:12;;;;;;;37.75;20.08;;;;;;;;;;5077401;28;20024;-66
2022/01/09 07:32:40;;;;;;;48.25;21.58;;;;;;;;;;5076688;28;20038;-67
2022/01/09 07:35:07;;;;;;;39.50;19.45;;;;;;;;;;5077291;28;20138;-69
2022/01/09 07:37:33;;;;;;;40.13;20.98;;;;;;;;;;5086742;28;20020;-68
2022/01/09 07:40:11;;;;;;;35.13;17.65;;;;;;;;;;5097088;28;20024;-67
2022/01/09 07:42:40;;;;;;;35.47;17.17;;;;;;;;;;5095571;28;20394;-68
2022/01/09 07:45:07;;;;;;;36.53;18.05;;;;;;;;;;5094995;28;20052;-66
2022/01/09 07:47:33;;;;;;;47.70;25.60;;;;;;;;;;5091159;28;20016;-68
2022/01/09 07:50:00;;;;;;;48.38;25.05;;;;;;;;;;5096841;28;20085;-67
2022/01/09 07:52:26;;;;;;;50.70;26.48;;;;;;;;;;5097153;28;20101;-68
2022/01/09 07:54:52;;;;;;;49.22;25.02;;;;;;;;;;5093919;28;20036;-65
2022/01/09 07:57:18;;;;;;;78.75;39.13;;;;;;;;;;5075443;28;20032;-68
2022/01/09 07:59:45;;;;;;;53.83;28.30;;;;;;;;;;5075553;28;20032;-68
2022/01/09 08:02:15;;;;;;;58.47;29.92;;;;;;;;;;5093275;28;20020;-68
2022/01/09 08:04:41;;;;;;;60.17;30.05;;;;;;;;;;5096554;28;20024;-67
2022/01/09 08:07:07;;;;;;;72.75;37.60;;;;;;;;;;5096832;28;20115;-67
2022/01/09 08:09:33;;;;;;;59.10;31.95;;;;;;;;;;5085516;28;20033;-67
2022/01/09 08:11:59;;;;;;;61.10;29.85;;;;;;;;;;5076474;28;20139;-67
2022/01/09 08:14:26;;;;;;;44.42;24.15;;;;;;;;;;5076140;28;20081;-67
2022/01/09 08:16:52;;;;;;;44.28;22.08;;;;;;;;;;5077482;28;20083;-67
2022/01/09 08:19:18;;;;;;;85.60;37.92;;;;;;;;;;5076552;28;20115;-67
2022/01/09 08:21:44;;;;;;;40.08;17.65;;;;;;;;;;5081342;28;20396;-69
2022/01/09 08:24:10;;;;;;;44.67;23.35;;;;;;;;;;5084921;28;20072;-62
2022/01/09 08:26:36;;;;;;;41.55;23.10;;;;;;;;;;5087022;28;20043;-67
2022/01/09 08:29:03;;;;;;;36.95;20.45;;;;;;;;;;5085498;28;20021;-66
2022/01/09 08:31:29;;;;;;;43.35;21.73;;;;;;;;;;5085218;28;20439;-65
2022/01/09 08:33:55;;;;;;;40.97;20.00;;;;;;;;;;5086753;28;20399;-65
2022/01/09 08:36:21;;;;;;;32.03;18.38;;;;;;;;;;5084809;28;20370;-66
2022/01/09 08:38:48;;;;;;;40.15;20.92;;;;;;;;;;5085056;28;20164;-66
2022/01/09 08:41:14;;;;;;;46.63;25.88;;;;;;;;;;5086463;28;20083;-67
2022/01/09 08:43:40;;;;;;;39.20;23.30;;;;;;;;;;5084514;28;20093;-64
2022/01/09 08:46:08;;;;;;;24.92;13.13;;;;;;;;;;5085053;28;20020;-66
2022/01/09 08:48:34;;;;;;;18.70;9.60;;;;;;;;;;5086355;28;20466;-66
2022/01/09 08:51:02;;;;;;;24.10;13.07;;;;;;;;;;5084896;28;20024;-67
2022/01/09 08:53:28;;;;;;;25.27;13.50;;;;;;;;;;5084863;28;20035;-66
2022/01/09 08:55:54;;;;;;;27.42;14.30;;;;;;;;;;5086488;28;20020;-66
2022/01/09 08:58:20;;;;;;;39.67;20.77;;;;;;;;;;5084446;28;20024;-64
2022/01/09 09:00:46;;;;;;;31.40;17.83;;;;;;;;;;5084978;28;20012;-65
2022/01/09 09:03:12;;;;;;;38.88;21.25;;;;;;;;;;5085915;28;20036;-65
2022/01/09 09:05:39;;;;;;;42.00;19.58;;;;;;;;;;5082691;28;20466;-65
2022/01/09 09:08:05;;;;;;;38.38;20.02;;;;;;;;;;5085128;28;20070;-65
2022/01/09 09:10:32;;;;;;;30.02;15.98;;;;;;;;;;5085635;28;20028;-52
2022/01/09 09:13:11;;;;;;;41.45;21.52;;;;;;;;;;5082666;28;20110;-59
2022/01/09 09:15:40;;;;;;;58.80;30.13;;;;;;;;;;5083403;28;20433;-56
2022/01/09 09:18:09;;;;;;;63.35;34.03;;;;;;;;;;5086937;28;20046;-55
2022/01/09 09:20:36;;;;;;;75.45;39.72;;;;;;;;;;5082390;28;20119;-52
2022/01/09 09:23:02;;;;;;;86.82;43.58;;;;;;;;;;5084485;28;20070;-53
2022/01/09 09:25:28;;;;;;;85.30;43.53;;;;;;;;;;5083930;28;20085;-50
2022/01/09 09:27:55;;;;;;;79.25;41.83;;;;;;;;;;5085772;28;20023;-53
2022/01/09 09:30:21;;;;;;;85.15;43.42;;;;;;;;;;5084104;28;20538;-55
2022/01/09 09:32:47;;;;;;;86.75;45.40;;;;;;;;;;5083882;28;20498;-53
2022/01/09 09:35:13;;;;;;;83.80;42.25;;;;;;;;;;5085769;28;20017;-52
2022/01/09 09:37:39;;;;;;;81.45;43.97;;;;;;;;;;5084817;28;20024;-50
2022/01/09 09:40:06;;;;;;;86.47;46.45;;;;;;;;;;5084052;28;20081;-54
2022/01/09 09:42:33;;;;;;;84.90;44.25;;;;;;;;;;5084860;28;20054;-52
2022/01/09 09:45:01;;;;;;;84.25;45.25;;;;;;;;;;5084112;28;20070;-52
2022/01/09 09:47:28;;;;;;;99.32;50.90;;;;;;;;;;5080999;28;20020;-51
2022/01/09 09:49:54;;;;;;;81.82;43.55;;;;;;;;;;5084727;28;20016;-53
2022/01/09 09:52:21;;;;;;;87.10;42.38;;;;;;;;;;5084404;28;20048;-52
2022/01/09 09:54:48;;;;;;;71.07;39.35;;;;;;;;;;5082914;28;20417;-50
2022/01/09 09:57:14;;;;;;;74.47;42.75;;;;;;;;;;5085182;28;20027;-53
2022/01/09 09:59:40;;;;;;;79.05;42.05;;;;;;;;;;5084251;28;20025;-52
2022/01/09 10:02:11;;;;;;;129.15;64.47;;;;;;;;;;5074540;28;20487;-50
2022/01/09 10:04:37;;;;;;;73.20;40.77;;;;;;;;;;5077682;28;20093;-52
2022/01/09 10:07:04;;;;;;;72.53;40.72;;;;;;;;;;5094032;28;20111;-51
2022/01/09 10:09:30;;;;;;;74.97;38.25;;;;;;;;;;5094492;28;20026;-51
2022/01/09 10:12:00;;;;;;;77.60;44.08;;;;;;;;;;5092096;28;20016;-52
2022/01/09 10:14:30;;;;;;;70.15;37.83;;;;;;;;;;5074044;28;20028;-50
2022/01/09 10:17:09;;;;;;;72.60;39.53;;;;;;;;;;5079571;28;20024;-53
2022/01/09 10:19:43;;;;;;;68.53;34.88;;;;;;;;;;5083124;28;20140;-51
2022/01/09 10:22:22;;;;;;;67.10;35.13;;;;;;;;;;5082903;28;20108;-54
2022/01/09 10:24:49;;;;;;;54.92;30.40;;;;;;;;;;5084222;28;20067;-50
2022/01/09 10:27:32;;;;;;;50.08;27.05;;;;;;;;;;5091242;28;20024;-55
2022/01/09 10:29:59;;;;;;;55.95;29.05;;;;;;;;;;5085951;28;20153;-54
2022/01/09 10:32:26;;;;;;;48.88;25.67;;;;;;;;;;5084712;28;20455;-56
2022/01/09 10:35:12;;;;;;;53.40;27.15;;;;;;;;;;5084223;28;20103;-54
2022/01/09 10:37:39;;;;;;;43.85;24.20;;;;;;;;;;5083618;28;20048;-53
2022/01/09 10:40:08;;;;;;;39.33;22.38;;;;;;;;;;5082310;28;20023;-57
2022/01/09 10:42:34;;;;;;;43.97;22.02;;;;;;;;;;5089584;28;20019;-56
2022/01/09 10:45:21;;;;;;;51.05;25.95;;;;;;;;;;5083109;28;20069;-53
2022/01/09 10:47:48;;;;;;;41.95;22.83;;;;;;;;;;5062895;28;20475;-56
2022/01/09 10:50:24;;;;;;;44.08;24.73;;;;;;;;;;5072313;28;20450;-63
2022/01/09 10:52:50;;;;;;;50.15;25.55;;;;;;;;;;5073421;28;20059;-67
2022/01/09 10:55:16;;;;;;;55.33;27.25;;;;;;;;;;5072263;28;20025;-65
2022/01/09 10:57:43;;;;;;;54.05;29.05;;;;;;;;;;5071371;28;20016;-64
2022/01/09 11:00:11;;;;;;;65.60;32.00;;;;;;;;;;5073221;28;20055;-64
2022/01/09 11:02:37;;;;;;;63.15;31.23;;;;;;;;;;5071947;28;20465;-66
2022/01/09 11:05:04;;;;;;;59.25;32.40;;;;;;;;;;5072903;28;20043;-66
2022/01/09 11:07:30;;;;;;;55.13;28.48;;;;;;;;;;5073428;28;20063;-65
2022/01/09 11:09:58;;;;;;;58.17;29.83;;;;;;;;;;5072894;28;20021;-65
2022/01/09 11:12:25;;;;;;;62.72;30.73;;;;;;;;;;5073648;28;20017;-65
2022/01/09 11:14:52;;;;;;;62.08;33.03;;;;;;;;;;5072735;28;20387;-64
2022/01/09 11:17:20;;;;;;;63.92;32.33;;;;;;;;;;5072699;28;20021;-65
2022/01/09 11:19:46;;;;;;;65.82;32.20;;;;;;;;;;5072691;28;20035;-65
2022/01/09 11:22:12;;;;;;;63.70;33.17;;;;;;;;;;5072602;28;20062;-67
2022/01/09 11:24:44;;;;;;;63.88;32.55;;;;;;;;;;5072564;28;20040;-64
2022/01/09 11:27:17;;;;;;;55.95;29.35;;;;;;;;;;5072977;28;20455;-66
2022/01/09 11:30:03;;;;;;;56.17;29.80;;;;;;;;;;5071780;28;20431;-64
2022/01/09 11:32:39;;;;;;;59.53;28.60;;;;;;;;;;5073028;28;20066;-66
2022/01/09 11:35:05;;;;;;;56.40;26.80;;;;;;;;;;5073558;28;20028;-65
2022/01/09 11:37:50;;;;;;;50.53;25.58;;;;;;;;;;5073096;28;20021;-65
2022/01/09 11:40:48;;;;;;;51.65;26.38;;;;;;;;;;5072752;28;20037;-62
2022/01/09 11:43:15;;;;;;;43.22;22.23;;;;;;;;;;5039090;28;20483;-66
2022/01/09 11:45:46;;;;;;;45.20;23.27;;;;;;;;;;5072026;28;20103;-66
2022/01/09 11:48:20;;;;;;;45.70;24.90;;;;;;;;;;5070248;28;20032;-64
2022/01/09 11:51:19;;;;;;;50.45;25.70;;;;;;;;;;5070097;28;20028;-67
2022/01/09 11:53:57;;;;;;;50.60;25.23;;;;;;;;;;5037435;28;20044;-63
2022/01/09 11:56:46;;;;;;;54.17;27.70;;;;;;;;;;5072699;28;20363;-65
2022/01/09 11:59:23;;;;;;;55.83;29.13;;;;;;;;;;5071429;28;20027;-64
2022/01/09 12:01:50;;;;;;;50.97;26.83;;;;;;;;;;5072615;28;20024;-67
2022/01/09 12:04:35;;;;;;;74.28;37.95;;;;;;;;;;5072572;28;20437;-64
2022/01/09 12:07:09;;;;;;;76.78;36.75;;;;;;;;;;5072946;28;20028;-66
2022/01/09 12:09:40;;;;;;;62.35;34.35;;;;;;;;;;5076365;28;20016;-65
2022/01/09 12:12:11;;;;;;;56.75;27.60;;;;;;;;;;5076598;28;20020;-64
2022/01/09 12:14:58;;;;;;;56.40;27.55;;;;;;;;;;5075947;28;20521;-67
2022/01/09 12:20:04;;;;;;;52.15;26.27;;;;;;;;;;5075511;28;20095;-66
2022/01/09 12:25:37;;;;;;;80.13;39.75;;;;;;;;;;5074922;28;20086;-64
2022/01/09 12:28:08;;;;;;;67.85;32.42;;;;;;;;;;5076158;28;20025;-65
2022/01/09 12:30:44;;;;;;;62.20;30.05;;;;;;;;;;5076239;28;20485;-63
2022/01/09 12:33:25;;;;;;;60.78;30.02;;;;;;;;;;5075685;28;20498;-65
2022/01/09 12:36:03;;;;;;;56.33;28.07;;;;;;;;;;5076174;28;20112;-65
2022/01/09 12:38:30;;;;;;;58.72;27.88;;;;;;;;;;5076054;28;20109;-66
2022/01/09 12:40:57;;;;;;;57.38;28.10;;;;;;;;;;5075699;28;20028;-63
2022/01/09 12:43:24;;;;;;;57.00;29.38;;;;;;;;;;5075862;28;20017;-66
2022/01/09 12:45:52;;;;;;;60.05;30.10;;;;;;;;;;5076222;28;20023;-64
2022/01/09 12:48:59;;;;;;;55.65;30.58;;;;;;;;;;5075311;28;20107;-65
2022/01/09 12:51:46;;;;;;;54.67;28.48;;;;;;;;;;5074579;28;20055;-64
2022/01/09 12:54:12;;;;;;;63.65;30.73;;;;;;;;;;5073913;28;20024;-65
2022/01/09 12:56:39;;;;;;;77.30;38.75;;;;;;;;;;5074360;28;20065;-65
2022/01/09 12:59:07;;;;;;;88.05;45.13;;;;;;;;;;5075990;28;20069;-66
2022/01/09 13:01:44;;;;;;;96.93;47.78;;;;;;;;;;5075540;28;20425;-67
2022/01/09 13:04:17;;;;;;;62.38;30.48;;;;;;;;;;5074061;28;20032;-68
2022/01/09 13:06:45;;;;;;;90.20;40.53;;;;;;;;;;5075382;28;20020;-65
2022/01/09 13:09:33;;;;;;;74.85;36.92;;;;;;;;;;5074618;28;20021;-67
2022/01/09 13:12:22;;;;;;;82.28;41.40;;;;;;;;;;5073792;28;20116;-66
2022/01/09 13:14:53;;;;;;;60.88;31.30;;;;;;;;;;5074997;28;20048;-66
2022/01/09 13:17:20;;;;;;;62.65;33.08;;;;;;;;;;5073357;28;20024;-65
2022/01/09 13:19:46;;;;;;;70.85;35.15;;;;;;;;;;5073348;28;20024;-65
2022/01/09 13:22:17;;;;;;;63.58;31.65;;;;;;;;;;5074226;28;20021;-64
2022/01/09 13:24:43;;;;;;;58.90;29.70;;;;;;;;;;5074641;28;20067;-65
2022/01/09 13:27:11;;;;;;;60.20;29.95;;;;;;;;;;5074700;28;20029;-64
2022/01/09 13:29:42;;;;;;;68.38;33.53;;;;;;;;;;5074295;28;20031;-67
2022/01/09 13:32:08;;;;;;;72.45;38.45;;;;;;;;;;5074708;28;20027;-65
2022/01/09 13:34:34;;;;;;;84.70;44.15;;;;;;;;;;5074694;28;20031;-67
2022/01/09 13:37:10;;;;;;;83.35;41.28;;;;;;;;;;5074511;28;20024;-67
2022/01/09 13:39:37;;;;;;;124.43;53.55;;;;;;;;;;5073586;28;20017;-66
2022/01/09 13:42:05;;;;;;;91.03;42.08;;;;;;;;;;5074599;28;20031;-65
2022/01/09 13:44:32;;;;;;;84.00;42.15;;;;;;;;;;5072897;28;20123;-65
2022/01/09 13:47:03;;;;;;;92.07;47.03;;;;;;;;;;5072610;28;20024;-67
2022/01/09 13:49:29;;;;;;;103.40;49.78;;;;;;;;;;5073384;28;20066;-66
2022/01/09 13:51:56;;;;;;;92.05;43.83;;;;;;;;;;5072624;28;20075;-65
2022/01/09 13:54:23;;;;;;;98.38;48.22;;;;;;;;;;5074642;28;20107;-66
2022/01/09 13:57:02;;;;;;;109.13;52.20;;;;;;;;;;5073339;28;20382;-67
2022/01/09 13:59:59;;;;;;;89.70;45.30;;;;;;;;;;5074187;28;20024;-64
2022/01/09 14:02:26;;;;;;;104.70;48.15;;;;;;;;;;5061190;28;20033;-65
2022/01/09 14:05:11;;;;;;;96.03;48.55;;;;;;;;;;5073069;28;20036;-65
2022/01/09 14:07:37;;;;;;;86.85;42.05;;;;;;;;;;5073081;28;20078;-66
2022/01/09 14:10:05;;;;;;;81.10;39.95;;;;;;;;;;5073040;28;20032;-65
2022/01/09 14:12:34;;;;;;;85.03;41.90;;;;;;;;;;5073661;28;20025;-64
2022/01/09 14:15:10;;;;;;;90.43;42.75;;;;;;;;;;5073346;28;20095;-67
2022/01/09 14:17:36;;;;;;;92.00;43.97;;;;;;;;;;5072401;28;20036;-67
2022/01/09 14:20:14;;;;;;;81.95;42.13;;;;;;;;;;5071602;28;20028;-69
2022/01/09 14:22:47;;;;;;;89.40;44.38;;;;;;;;;;5073384;28;20033;-63
2022/01/09 14:25:16;;;;;;;88.03;43.63;;;;;;;;;;5073000;28;20023;-65
2022/01/09 14:27:45;;;;;;;75.32;37.22;;;;;;;;;;5073799;28;20103;-64
2022/01/09 14:30:28;;;;;;;73.15;36.97;;;;;;;;;;5073658;28;20501;-67
2022/01/09 14:33:13;;;;;;;93.35;46.58;;;;;;;;;;5073419;28;20489;-66